WZZ411 EPGD-ENHD
Flight info
| Callsign | WZZ411 |
|---|---|
| Flight time | 1h 17m |
| Altitude | 34000 |
| Route | VAPOS N133 PENOR DCT KOTAM DCT VADIN DCT GOTEX DCT AMSEV DCT RIVEX |
| Aircraft | A321/M-SDE1E2E3FGIJ1J4RWXY/LB1 |
Departure
| Time | 2026-04-22 12:32 |
|---|---|
| Airport | Gdańsk Lech Wałęsa Airport (EPGD) |
Arrival
| Time | 2026-04-22 13:49 |
|---|---|
| Airport | Haugesund Airport, Karmøy (ENHD) |
| Time | Latitude | Longitude | Altitude | Speed | Heading |
|---|---|---|---|---|---|
| 2026-04-22 12:15 | 54.38061 | 18.46379 | 460 ft | 0 kts | 203° |
| 2026-04-22 12:16 | 54.38062 | 18.46379 | 460 ft | 0 kts | 203° |
| 2026-04-22 12:22 | 54.38062 | 18.46380 | 460 ft | 0 kts | 203° |
| 2026-04-22 12:23 | 54.38062 | 18.46379 | 460 ft | 0 kts | 203° |
| 2026-04-22 12:23 | 54.38062 | 18.46380 | 460 ft | 0 kts | 203° |
| 2026-04-22 12:27 | 54.38057 | 18.46376 | 458 ft | 4 kts | 204° |
| 2026-04-22 12:27 | 54.38012 | 18.46372 | 460 ft | 9 kts | 152° |
| 2026-04-22 12:27 | 54.37966 | 18.46498 | 460 ft | 16 kts | 114° |
| 2026-04-22 12:28 | 54.37934 | 18.46626 | 457 ft | 18 kts | 113° |
| 2026-04-22 12:28 | 54.37888 | 18.46814 | 460 ft | 16 kts | 114° |
| 2026-04-22 12:28 | 54.37845 | 18.46988 | 460 ft | 15 kts | 113° |
| 2026-04-22 12:28 | 54.37802 | 18.47161 | 460 ft | 16 kts | 113° |
| 2026-04-22 12:29 | 54.37755 | 18.47351 | 460 ft | 18 kts | 113° |
| 2026-04-22 12:29 | 54.37705 | 18.47549 | 463 ft | 18 kts | 112° |
| 2026-04-22 12:29 | 54.37658 | 18.47741 | 465 ft | 17 kts | 113° |
| 2026-04-22 12:29 | 54.37611 | 18.47931 | 470 ft | 18 kts | 113° |
| 2026-04-22 12:30 | 54.37505 | 18.48358 | 479 ft | 20 kts | 113° |
| 2026-04-22 12:30 | 54.37455 | 18.48557 | 482 ft | 15 kts | 113° |
| 2026-04-22 12:30 | 54.37382 | 18.48641 | 487 ft | 14 kts | 188° |
| 2026-04-22 12:31 | 54.37304 | 18.48559 | 487 ft | 14 kts | 246° |
| 2026-04-22 12:31 | 54.37347 | 18.48281 | 478 ft | 52 kts | 292° |
| 2026-04-22 12:31 | 54.37598 | 18.47269 | 462 ft | 127 kts | 293° |
| 2026-04-22 12:31 | 54.37982 | 18.45739 | 1011 ft | 139 kts | 295° |
| 2026-04-22 12:32 | 54.38353 | 18.44231 | 1857 ft | 138 kts | 294° |
| 2026-04-22 12:32 | 54.39204 | 18.40820 | 2828 ft | 177 kts | 296° |
| 2026-04-22 12:32 | 54.39715 | 18.38750 | 3229 ft | 199 kts | 295° |
| 2026-04-22 12:33 | 54.40280 | 18.36446 | 3595 ft | 225 kts | 295° |
| 2026-04-22 12:33 | 54.40911 | 18.33871 | 4262 ft | 240 kts | 295° |
| 2026-04-22 12:33 | 54.41571 | 18.31187 | 5135 ft | 248 kts | 295° |
| 2026-04-22 12:33 | 54.42260 | 18.28445 | 6063 ft | 251 kts | 300° |
| 2026-04-22 12:34 | 54.43348 | 18.26109 | 6970 ft | 252 kts | 323° |
| 2026-04-22 12:34 | 54.44832 | 18.24458 | 7862 ft | 256 kts | 329° |
| 2026-04-22 12:34 | 54.46364 | 18.22848 | 8735 ft | 260 kts | 330° |
| 2026-04-22 12:34 | 54.47903 | 18.21233 | 9631 ft | 264 kts | 331° |
| 2026-04-22 12:35 | 54.49484 | 18.19568 | 10454 ft | 270 kts | 331° |
| 2026-04-22 12:35 | 54.51154 | 18.17812 | 10795 ft | 293 kts | 331° |
| 2026-04-22 12:35 | 54.52953 | 18.15921 | 11179 ft | 310 kts | 331° |
| 2026-04-22 12:35 | 54.54827 | 18.13939 | 11891 ft | 317 kts | 330° |
| 2026-04-22 12:36 | 54.56694 | 18.11953 | 12645 ft | 322 kts | 330° |
| 2026-04-22 12:36 | 54.58619 | 18.09896 | 13413 ft | 327 kts | 331° |
| 2026-04-22 12:36 | 54.60511 | 18.07642 | 14139 ft | 333 kts | 326° |
| 2026-04-22 12:36 | 54.62376 | 18.05206 | 14818 ft | 337 kts | 326° |
| 2026-04-22 12:37 | 54.64237 | 18.02773 | 15477 ft | 341 kts | 325° |
| 2026-04-22 12:37 | 54.66138 | 18.00281 | 16173 ft | 345 kts | 325° |
| 2026-04-22 12:37 | 54.68063 | 17.97758 | 16880 ft | 349 kts | 325° |
| 2026-04-22 12:37 | 54.70015 | 17.95201 | 17592 ft | 353 kts | 325° |
| 2026-04-22 12:38 | 54.71984 | 17.92618 | 18287 ft | 357 kts | 325° |
| 2026-04-22 12:38 | 54.73955 | 17.90028 | 18899 ft | 361 kts | 325° |
| 2026-04-22 12:38 | 54.75971 | 17.87374 | 19480 ft | 365 kts | 325° |
| 2026-04-22 12:38 | 54.78020 | 17.84677 | 20069 ft | 370 kts | 325° |
| 2026-04-22 12:39 | 54.80154 | 17.82243 | 20641 ft | 372 kts | 334° |
| 2026-04-22 12:39 | 54.84906 | 17.78467 | 21815 ft | 379 kts | 338° |
| 2026-04-22 12:39 | 54.87325 | 17.76575 | 22408 ft | 384 kts | 338° |
| 2026-04-22 12:40 | 54.89773 | 17.74648 | 22996 ft | 388 kts | 338° |
| 2026-04-22 12:40 | 54.92250 | 17.72688 | 23566 ft | 392 kts | 338° |
| 2026-04-22 12:40 | 54.94719 | 17.70732 | 24059 ft | 396 kts | 338° |
| 2026-04-22 12:40 | 54.97244 | 17.68729 | 24504 ft | 400 kts | 338° |
| 2026-04-22 12:41 | 54.99800 | 17.66725 | 24978 ft | 403 kts | 339° |
| 2026-04-22 12:41 | 55.02384 | 17.64749 | 25448 ft | 406 kts | 339° |
| 2026-04-22 12:41 | 55.04986 | 17.62786 | 25931 ft | 408 kts | 340° |
| 2026-04-22 12:41 | 55.07606 | 17.60810 | 26399 ft | 411 kts | 340° |
| 2026-04-22 12:42 | 55.10247 | 17.58809 | 26849 ft | 414 kts | 340° |
| 2026-04-22 12:42 | 55.12864 | 17.56813 | 27297 ft | 417 kts | 340° |
| 2026-04-22 12:42 | 55.15533 | 17.54764 | 27740 ft | 420 kts | 340° |
| 2026-04-22 12:42 | 55.18223 | 17.52688 | 28178 ft | 423 kts | 341° |
| 2026-04-22 12:43 | 55.20925 | 17.50602 | 28613 ft | 426 kts | 341° |
| 2026-04-22 12:43 | 55.23645 | 17.48483 | 29039 ft | 429 kts | 341° |
| 2026-04-22 12:43 | 55.26379 | 17.46318 | 29459 ft | 432 kts | 341° |
| 2026-04-22 12:43 | 55.29137 | 17.44111 | 29875 ft | 435 kts | 341° |
| 2026-04-22 12:44 | 55.31903 | 17.41888 | 30271 ft | 438 kts | 341° |
| 2026-04-22 12:44 | 55.34646 | 17.39686 | 30557 ft | 441 kts | 342° |
| 2026-04-22 12:44 | 55.37458 | 17.37433 | 30813 ft | 445 kts | 343° |
| 2026-04-22 12:44 | 55.40290 | 17.35166 | 31117 ft | 448 kts | 343° |
| 2026-04-22 12:45 | 55.43143 | 17.32881 | 31459 ft | 451 kts | 343° |
| 2026-04-22 12:45 | 55.46011 | 17.30582 | 31804 ft | 453 kts | 343° |
| 2026-04-22 12:45 | 55.48891 | 17.28269 | 32255 ft | 453 kts | 344° |
| 2026-04-22 12:45 | 55.51753 | 17.25959 | 32746 ft | 451 kts | 345° |
| 2026-04-22 12:46 | 55.54568 | 17.23676 | 33232 ft | 450 kts | 345° |
| 2026-04-22 12:46 | 55.57445 | 17.21340 | 33732 ft | 449 kts | 345° |
| 2026-04-22 12:46 | 55.60174 | 17.18629 | 34129 ft | 463 kts | 335° |
| 2026-04-22 12:46 | 55.62697 | 17.14970 | 34183 ft | 470 kts | 324° |
| 2026-04-22 12:47 | 55.64778 | 17.10545 | 34167 ft | 478 kts | 312° |
| 2026-04-22 12:47 | 55.66346 | 17.05270 | 34191 ft | 488 kts | 300° |
| 2026-04-22 12:47 | 55.67606 | 16.99661 | 34175 ft | 489 kts | 299° |
| 2026-04-22 12:48 | 55.70068 | 16.88454 | 34188 ft | 491 kts | 298° |
| 2026-04-22 12:48 | 55.72552 | 16.77139 | 34185 ft | 491 kts | 299° |
| 2026-04-22 12:49 | 55.75037 | 16.65858 | 34187 ft | 491 kts | 298° |
| 2026-04-22 12:49 | 55.77501 | 16.54612 | 34195 ft | 491 kts | 298° |
| 2026-04-22 12:50 | 55.79974 | 16.43246 | 34196 ft | 491 kts | 298° |
| 2026-04-22 12:50 | 55.82419 | 16.31948 | 34198 ft | 492 kts | 298° |
| 2026-04-22 12:51 | 55.84887 | 16.20524 | 34189 ft | 501 kts | 298° |
| 2026-04-22 12:51 | 55.87444 | 16.08690 | 34185 ft | 520 kts | 298° |
| 2026-04-22 12:52 | 55.90012 | 15.96627 | 34158 ft | 526 kts | 297° |
| 2026-04-22 12:52 | 55.92583 | 15.84385 | 34176 ft | 527 kts | 297° |
| 2026-04-22 12:53 | 55.95138 | 15.72183 | 34171 ft | 527 kts | 297° |
| 2026-04-22 12:53 | 55.97708 | 15.59895 | 34172 ft | 527 kts | 297° |
| 2026-04-22 12:54 | 56.00265 | 15.47591 | 34170 ft | 528 kts | 297° |
| 2026-04-22 12:54 | 56.02810 | 15.35252 | 34171 ft | 529 kts | 296° |
| 2026-04-22 12:55 | 56.05345 | 15.22940 | 34173 ft | 530 kts | 296° |
| 2026-04-22 12:55 | 56.07880 | 15.10505 | 34183 ft | 531 kts | 296° |
| 2026-04-22 12:56 | 56.10382 | 14.98143 | 34189 ft | 531 kts | 296° |
| 2026-04-22 12:56 | 56.12916 | 14.85698 | 34172 ft | 529 kts | 299° |
| 2026-04-22 12:57 | 56.16416 | 14.74316 | 34189 ft | 519 kts | 309° |
| 2026-04-22 12:57 | 56.20151 | 14.63189 | 34194 ft | 520 kts | 308° |
| 2026-04-22 12:58 | 56.23869 | 14.52029 | 34206 ft | 520 kts | 308° |
| 2026-04-22 12:58 | 56.27558 | 14.40876 | 34175 ft | 520 kts | 308° |
| 2026-04-22 12:59 | 56.31259 | 14.29657 | 34196 ft | 520 kts | 308° |
| 2026-04-22 12:59 | 56.34923 | 14.18507 | 34213 ft | 520 kts | 308° |
| 2026-04-22 13:00 | 56.38597 | 14.07234 | 34221 ft | 520 kts | 307° |
| 2026-04-22 13:00 | 56.42265 | 13.95933 | 34226 ft | 520 kts | 307° |
| 2026-04-22 13:01 | 56.45910 | 13.84694 | 34232 ft | 520 kts | 307° |
| 2026-04-22 13:01 | 56.49569 | 13.73329 | 34245 ft | 521 kts | 307° |
| 2026-04-22 13:02 | 56.53191 | 13.62028 | 34239 ft | 521 kts | 307° |
| 2026-04-22 13:02 | 56.56833 | 13.50597 | 34254 ft | 521 kts | 307° |
| 2026-04-22 13:03 | 56.60427 | 13.39253 | 34222 ft | 522 kts | 306° |
| 2026-04-22 13:03 | 56.64057 | 13.27778 | 34248 ft | 523 kts | 306° |
| 2026-04-22 13:04 | 56.67666 | 13.16290 | 34258 ft | 523 kts | 306° |
| 2026-04-22 13:04 | 56.71247 | 13.04838 | 34289 ft | 522 kts | 306° |
| 2026-04-22 13:05 | 56.74839 | 12.93301 | 34300 ft | 522 kts | 306° |
| 2026-04-22 13:05 | 56.78394 | 12.81832 | 34279 ft | 522 kts | 306° |
| 2026-04-22 13:06 | 56.81968 | 12.70243 | 34290 ft | 522 kts | 305° |
| 2026-04-22 13:06 | 56.85504 | 12.58715 | 34293 ft | 522 kts | 305° |
| 2026-04-22 13:07 | 56.89045 | 12.47098 | 34300 ft | 522 kts | 305° |
| 2026-04-22 13:07 | 56.92586 | 12.35432 | 34296 ft | 523 kts | 305° |
| 2026-04-22 13:08 | 56.96098 | 12.23844 | 34302 ft | 523 kts | 305° |
| 2026-04-22 13:08 | 56.99626 | 12.12152 | 34306 ft | 524 kts | 304° |
| 2026-04-22 13:09 | 57.03141 | 12.00391 | 34311 ft | 524 kts | 304° |
| 2026-04-22 13:09 | 57.06626 | 11.88672 | 34313 ft | 524 kts | 304° |
| 2026-04-22 13:10 | 57.10108 | 11.76926 | 34283 ft | 525 kts | 304° |
| 2026-04-22 13:10 | 57.13543 | 11.65032 | 34322 ft | 528 kts | 299° |
| 2026-04-22 13:11 | 57.16009 | 11.52183 | 34323 ft | 531 kts | 292° |
| 2026-04-22 13:11 | 57.18336 | 11.39326 | 34321 ft | 531 kts | 292° |
| 2026-04-22 13:12 | 57.20668 | 11.26379 | 34323 ft | 531 kts | 292° |
| 2026-04-22 13:12 | 57.23130 | 11.13608 | 34320 ft | 529 kts | 295° |
| 2026-04-22 13:13 | 57.25766 | 11.00906 | 34327 ft | 529 kts | 295° |
| 2026-04-22 13:13 | 57.28371 | 10.88244 | 34324 ft | 529 kts | 295° |
| 2026-04-22 13:14 | 57.30916 | 10.75451 | 34301 ft | 529 kts | 294° |
| 2026-04-22 13:14 | 57.33416 | 10.62608 | 34315 ft | 530 kts | 294° |
| 2026-04-22 13:15 | 57.35901 | 10.49814 | 34319 ft | 530 kts | 294° |
| 2026-04-22 13:15 | 57.38403 | 10.36929 | 34325 ft | 530 kts | 294° |
| 2026-04-22 13:16 | 57.40877 | 10.24135 | 34333 ft | 530 kts | 293° |
| 2026-04-22 13:16 | 57.43352 | 10.11220 | 34311 ft | 530 kts | 293° |
| 2026-04-22 13:17 | 57.45404 | 10.00463 | 34322 ft | 531 kts | 292° |
| 2026-04-22 13:17 | 57.48252 | 9.85407 | 34331 ft | 531 kts | 292° |
| 2026-04-22 13:18 | 57.50283 | 9.74612 | 34339 ft | 531 kts | 292° |
| 2026-04-22 13:18 | 57.52714 | 9.61595 | 34337 ft | 531 kts | 292° |
| 2026-04-22 13:19 | 57.55129 | 9.48558 | 34336 ft | 532 kts | 292° |
| 2026-04-22 13:19 | 57.57524 | 9.35578 | 34336 ft | 533 kts | 292° |
| 2026-04-22 13:20 | 57.59915 | 9.22507 | 34324 ft | 532 kts | 291° |
| 2026-04-22 13:20 | 57.62287 | 9.09420 | 34340 ft | 531 kts | 291° |
| 2026-04-22 13:21 | 57.64634 | 8.96419 | 34334 ft | 530 kts | 291° |
| 2026-04-22 13:21 | 57.67011 | 8.83345 | 34333 ft | 529 kts | 295° |
| 2026-04-22 13:22 | 57.70500 | 8.71489 | 34336 ft | 522 kts | 307° |
| 2026-04-22 13:22 | 57.74401 | 8.60000 | 34335 ft | 522 kts | 307° |
| 2026-04-22 13:23 | 57.78289 | 8.48471 | 34322 ft | 523 kts | 306° |
| 2026-04-22 13:23 | 57.82142 | 8.36995 | 34317 ft | 524 kts | 306° |
| 2026-04-22 13:24 | 57.86020 | 8.25374 | 34320 ft | 525 kts | 306° |
| 2026-04-22 13:24 | 57.89875 | 8.13789 | 34310 ft | 525 kts | 306° |
| 2026-04-22 13:25 | 57.93743 | 8.02114 | 34309 ft | 525 kts | 306° |
| 2026-04-22 13:25 | 57.97598 | 7.90396 | 34294 ft | 525 kts | 305° |
| 2026-04-22 13:26 | 58.01377 | 7.78830 | 33936 ft | 511 kts | 305° |
| 2026-04-22 13:26 | 58.03221 | 7.73164 | 33654 ft | 501 kts | 305° |
| 2026-04-22 13:26 | 58.05028 | 7.67605 | 33354 ft | 492 kts | 304° |
| 2026-04-22 13:26 | 58.06815 | 7.62096 | 32781 ft | 489 kts | 304° |
| 2026-04-22 13:27 | 58.08588 | 7.56623 | 32228 ft | 487 kts | 304° |
| 2026-04-22 13:27 | 58.10351 | 7.51169 | 31670 ft | 484 kts | 304° |
| 2026-04-22 13:27 | 58.12104 | 7.45744 | 31105 ft | 482 kts | 304° |
| 2026-04-22 13:27 | 58.13850 | 7.40336 | 30567 ft | 479 kts | 303° |
| 2026-04-22 13:28 | 58.15558 | 7.35029 | 29973 ft | 475 kts | 303° |
| 2026-04-22 13:28 | 58.17269 | 7.29692 | 29456 ft | 470 kts | 303° |
| 2026-04-22 13:28 | 58.18953 | 7.24432 | 28932 ft | 464 kts | 303° |
| 2026-04-22 13:28 | 58.20618 | 7.19216 | 28422 ft | 459 kts | 303° |
| 2026-04-22 13:29 | 58.22259 | 7.14051 | 27951 ft | 453 kts | 303° |
| 2026-04-22 13:29 | 58.23856 | 7.09015 | 27474 ft | 448 kts | 303° |
| 2026-04-22 13:29 | 58.25458 | 7.03954 | 27011 ft | 442 kts | 303° |
| 2026-04-22 13:29 | 58.27035 | 6.98968 | 26547 ft | 437 kts | 303° |
| 2026-04-22 13:30 | 58.28595 | 6.94022 | 26092 ft | 433 kts | 303° |
| 2026-04-22 13:30 | 58.30116 | 6.89193 | 25651 ft | 428 kts | 303° |
| 2026-04-22 13:30 | 58.31661 | 6.84287 | 25190 ft | 425 kts | 303° |
| 2026-04-22 13:30 | 58.33161 | 6.79511 | 24724 ft | 424 kts | 302° |
| 2026-04-22 13:31 | 58.34666 | 6.74698 | 24244 ft | 422 kts | 302° |
| 2026-04-22 13:31 | 58.36161 | 6.69904 | 23858 ft | 418 kts | 302° |
| 2026-04-22 13:31 | 58.37644 | 6.65132 | 23390 ft | 414 kts | 302° |
| 2026-04-22 13:31 | 58.39083 | 6.60494 | 23014 ft | 408 kts | 302° |
| 2026-04-22 13:32 | 58.40524 | 6.55849 | 22519 ft | 405 kts | 302° |
| 2026-04-22 13:32 | 58.42117 | 6.51442 | 22060 ft | 399 kts | 311° |
| 2026-04-22 13:32 | 58.43958 | 6.47524 | 21655 ft | 394 kts | 314° |
| 2026-04-22 13:32 | 58.45795 | 6.43656 | 21222 ft | 389 kts | 314° |
| 2026-04-22 13:33 | 58.47580 | 6.39879 | 20816 ft | 384 kts | 314° |
| 2026-04-22 13:33 | 58.49353 | 6.36107 | 20397 ft | 379 kts | 313° |
| 2026-04-22 13:33 | 58.51107 | 6.32368 | 19970 ft | 375 kts | 313° |
| 2026-04-22 13:33 | 58.52834 | 6.28681 | 19553 ft | 370 kts | 314° |
| 2026-04-22 13:34 | 58.54542 | 6.25037 | 19204 ft | 363 kts | 314° |
| 2026-04-22 13:34 | 58.56219 | 6.21460 | 18842 ft | 357 kts | 314° |
| 2026-04-22 13:34 | 58.57843 | 6.17979 | 18432 ft | 351 kts | 314° |
| 2026-04-22 13:34 | 58.59466 | 6.14502 | 17845 ft | 346 kts | 313° |
| 2026-04-22 13:35 | 58.61040 | 6.11122 | 17135 ft | 330 kts | 313° |
| 2026-04-22 13:35 | 58.62504 | 6.07968 | 16902 ft | 303 kts | 313° |
| 2026-04-22 13:35 | 58.63852 | 6.05059 | 16591 ft | 282 kts | 313° |
| 2026-04-22 13:35 | 58.65155 | 6.02254 | 16260 ft | 284 kts | 313° |
| 2026-04-22 13:36 | 58.66484 | 5.99402 | 15934 ft | 288 kts | 313° |
| 2026-04-22 13:36 | 58.67801 | 5.96573 | 15600 ft | 287 kts | 313° |
| 2026-04-22 13:36 | 58.69127 | 5.93713 | 15284 ft | 287 kts | 312° |
| 2026-04-22 13:36 | 58.70458 | 5.90838 | 14941 ft | 287 kts | 312° |
| 2026-04-22 13:37 | 58.71778 | 5.87977 | 14607 ft | 285 kts | 311° |
| 2026-04-22 13:37 | 58.73086 | 5.85131 | 14284 ft | 283 kts | 311° |
| 2026-04-22 13:37 | 58.74388 | 5.82293 | 13927 ft | 282 kts | 311° |
| 2026-04-22 13:37 | 58.75684 | 5.79470 | 13601 ft | 280 kts | 311° |
| 2026-04-22 13:38 | 58.76972 | 5.76656 | 13253 ft | 278 kts | 311° |
| 2026-04-22 13:38 | 58.79705 | 5.71450 | 12163 ft | 282 kts | 330° |
| 2026-04-22 13:38 | 58.81572 | 5.70225 | 11382 ft | 278 kts | 344° |
| 2026-04-22 13:39 | 58.83361 | 5.69324 | 11264 ft | 260 kts | 343° |
| 2026-04-22 13:39 | 58.85139 | 5.68380 | 11000 ft | 270 kts | 343° |
| 2026-04-22 13:39 | 58.86953 | 5.67400 | 10665 ft | 270 kts | 343° |
| 2026-04-22 13:39 | 58.88739 | 5.66431 | 10509 ft | 272 kts | 343° |
| 2026-04-22 13:40 | 58.90580 | 5.65432 | 10390 ft | 277 kts | 343° |
| 2026-04-22 13:40 | 58.92450 | 5.64423 | 9995 ft | 277 kts | 343° |
| 2026-04-22 13:40 | 58.94281 | 5.63439 | 9497 ft | 269 kts | 343° |
| 2026-04-22 13:40 | 58.96084 | 5.62466 | 9038 ft | 268 kts | 343° |
| 2026-04-22 13:41 | 58.97876 | 5.61495 | 8610 ft | 267 kts | 344° |
| 2026-04-22 13:41 | 58.99670 | 5.60526 | 8201 ft | 268 kts | 344° |
| 2026-04-22 13:41 | 59.01438 | 5.59573 | 7857 ft | 262 kts | 344° |
| 2026-04-22 13:41 | 59.03175 | 5.58634 | 7399 ft | 259 kts | 344° |
| 2026-04-22 13:42 | 59.04903 | 5.57698 | 6727 ft | 255 kts | 344° |
| 2026-04-22 13:42 | 59.06596 | 5.56779 | 6200 ft | 250 kts | 344° |
| 2026-04-22 13:42 | 59.08272 | 5.55869 | 5791 ft | 249 kts | 344° |
| 2026-04-22 13:42 | 59.09936 | 5.54968 | 5405 ft | 247 kts | 344° |
| 2026-04-22 13:43 | 59.11581 | 5.54073 | 5016 ft | 244 kts | 344° |
| 2026-04-22 13:43 | 59.13175 | 5.53205 | 4647 ft | 234 kts | 345° |
| 2026-04-22 13:43 | 59.14687 | 5.52380 | 4293 ft | 217 kts | 345° |
| 2026-04-22 13:43 | 59.16075 | 5.51626 | 4163 ft | 197 kts | 345° |
| 2026-04-22 13:44 | 59.17345 | 5.50934 | 4103 ft | 183 kts | 345° |
| 2026-04-22 13:44 | 59.18549 | 5.50275 | 4024 ft | 178 kts | 345° |
| 2026-04-22 13:44 | 59.19712 | 5.49471 | 3949 ft | 177 kts | 335° |
| 2026-04-22 13:44 | 59.20751 | 5.48205 | 3801 ft | 181 kts | 324° |
| 2026-04-22 13:45 | 59.21664 | 5.46506 | 3528 ft | 182 kts | 317° |
| 2026-04-22 13:45 | 59.22548 | 5.44740 | 3271 ft | 181 kts | 317° |
| 2026-04-22 13:45 | 59.23433 | 5.42982 | 3021 ft | 181 kts | 317° |
| 2026-04-22 13:45 | 59.24319 | 5.41227 | 2775 ft | 181 kts | 317° |
| 2026-04-22 13:46 | 59.25182 | 5.39515 | 2558 ft | 171 kts | 318° |
| 2026-04-22 13:46 | 59.25994 | 5.37900 | 2308 ft | 162 kts | 318° |
| 2026-04-22 13:46 | 59.26763 | 5.36368 | 2086 ft | 154 kts | 318° |
| 2026-04-22 13:46 | 59.27493 | 5.34911 | 1872 ft | 146 kts | 318° |
| 2026-04-22 13:47 | 59.28174 | 5.33553 | 1690 ft | 138 kts | 318° |
| 2026-04-22 13:47 | 59.28816 | 5.32262 | 1528 ft | 129 kts | 318° |
| 2026-04-22 13:47 | 59.29430 | 5.31032 | 1352 ft | 125 kts | 317° |
| 2026-04-22 13:47 | 59.30036 | 5.29821 | 1165 ft | 124 kts | 317° |
| 2026-04-22 13:48 | 59.30635 | 5.28626 | 995 ft | 122 kts | 317° |
| 2026-04-22 13:48 | 59.31231 | 5.27440 | 839 ft | 122 kts | 317° |
| 2026-04-22 13:48 | 59.31818 | 5.26272 | 675 ft | 119 kts | 317° |
| 2026-04-22 13:48 | 59.32397 | 5.25116 | 494 ft | 118 kts | 317° |
| 2026-04-22 13:49 | 59.32969 | 5.23959 | 353 ft | 118 kts | 320° |
| 2026-04-22 13:49 | 59.33539 | 5.22802 | 177 ft | 117 kts | 322° |
| 2026-04-22 13:49 | 59.34083 | 5.21754 | 89 ft | 86 kts | 315° |
| 2026-04-22 13:49 | 59.34360 | 5.21195 | 86 ft | 48 kts | 314° |
| 2026-04-22 13:50 | 59.34512 | 5.20886 | 82 ft | 46 kts | 314° |
| 2026-04-22 13:50 | 59.34685 | 5.20536 | 85 ft | 19 kts | 311° |
| 2026-04-22 13:50 | 59.34743 | 5.20435 | 67 ft | 5 kts | 261° |
| 2026-04-22 13:50 | 59.34723 | 5.20442 | 83 ft | 6 kts | 143° |
| 2026-04-22 13:51 | 59.34665 | 5.20552 | 82 ft | 16 kts | 130° |
| 2026-04-22 13:51 | 59.34588 | 5.20728 | 85 ft | 18 kts | 130° |
| 2026-04-22 13:51 | 59.34502 | 5.20903 | 84 ft | 18 kts | 134° |
| 2026-04-22 13:51 | 59.34438 | 5.21034 | 85 ft | 13 kts | 134° |
| 2026-04-22 13:52 | 59.34373 | 5.21165 | 89 ft | 14 kts | 134° |
| 2026-04-22 13:52 | 59.34345 | 5.21303 | 87 ft | 9 kts | 55° |
| 2026-04-22 13:52 | 59.34397 | 5.21375 | 89 ft | 4 kts | 37° |
| 2026-04-22 13:52 | 59.34419 | 5.21412 | 89 ft | 1 kts | 54° |
| 2026-04-22 13:53 | 59.34421 | 5.21417 | 88 ft | 2 kts | 58° |
| 2026-04-22 13:53 | 59.34427 | 5.21485 | 86 ft | 6 kts | 99° |
| 2026-04-22 13:53 | 59.34441 | 5.21542 | 88 ft | 4 kts | 46° |
| 2026-04-22 13:53 | 59.34443 | 5.21546 | 89 ft | 0 kts | 43° |